Terminal Aerodrome Forecast
Issued by NWS

Home | Current Version | Previous Version | Text Only | Print | Product List | Glossary On
Versions: 1 2 3 4 5 6 7 8 9 10 11 12 13 14 15 16
000
FTAK31 PAJN 251700
TAFAKT
TAF
PAKT 251723Z 2518/2618 15008KT 3SM -RA BR SCT008 OVC013
     FM252000 VRB06KT P6SM VCSH SCT015 OVC020
     FM260000 VRB06KT P6SM SCT015 OVC035
     FM261000 17006KT P6SM -SHRA SCT015 OVC025
      AMD LTD TO CLD VIS AND WIND 2606/2615=

USA.gov is the U.S. government's official web portal to all federal, state and local government web resources and services.